Time;durP1;ratioP1;P1;durP2;ratioP2;P2;SDS_P1;SDS_P2;PMS_P1;PMS_P2;Temp;Humidity;BMP_temperature;BMP_pressure;BME280_temperature;BME280_humidity;BME280_pressure;Samples;Min_cycle;Max_cycle;Signal;HPM_P1;HPM_P2
2023/09/04 00:00:33;;;;;;;3.63;1.10;;;12.90;99.90;;;;;;5144891;27;20058;-73
2023/09/04 00:02:59;;;;;;;14.77;1.88;;;12.90;99.90;;;;;;5156289;27;20042;-73
2023/09/04 00:05:25;;;;;;;36.83;4.07;;;12.80;99.90;;;;;;5151381;27;20046;-74
2023/09/04 00:07:50;;;;;;;23.20;2.10;;;12.70;99.90;;;;;;5128609;27;20046;-73
2023/09/04 00:10:16;;;;;;;3.50;1.00;;;12.60;99.90;;;;;;5152642;27;20067;-73
2023/09/04 00:12:42;;;;;;;8.95;1.50;;;12.50;99.90;;;;;;5118168;27;20365;-73
2023/09/04 00:15:08;;;;;;;18.55;1.92;;;12.40;99.90;;;;;;5150770;27;20038;-73
2023/09/04 00:17:34;;;;;;;5.60;1.45;;;12.40;99.90;;;;;;5136496;27;20039;-73
2023/09/04 00:19:59;;;;;;;7.45;1.35;;;12.30;99.90;;;;;;5155389;27;20034;-74
2023/09/04 00:22:27;;;;;;;1.27;0.77;;;12.30;99.90;;;;;;5156464;27;20100;-73
2023/09/04 00:24:53;;;;;;;5.80;1.10;;;12.20;99.90;;;;;;5155762;27;20038;-73
2023/09/04 00:27:19;;;;;;;9.02;1.27;;;12.10;99.90;;;;;;5156391;27;20445;-72
2023/09/04 00:29:46;;;;;;;30.60;1.98;;;12.00;99.90;;;;;;5156341;27;20090;-72
2023/09/04 00:32:12;;;;;;;10.90;1.98;;;11.90;99.90;;;;;;5156729;27;20043;-73
2023/09/04 00:34:37;;;;;;;1.70;0.90;;;11.90;99.90;;;;;;5156375;27;20045;-72
2023/09/04 00:37:04;;;;;;;13.40;1.92;;;11.90;99.90;;;;;;5153877;27;20126;-73
2023/09/04 00:39:29;;;;;;;60.40;4.78;;;12.00;99.90;;;;;;5154358;27;20034;-73
2023/09/04 00:41:55;;;;;;;50.35;4.65;;;12.00;99.90;;;;;;5138219;27;20056;-73
2023/09/04 00:44:21;;;;;;;10.85;1.95;;;11.90;99.90;;;;;;5154716;27;20118;-73
2023/09/04 00:46:46;;;;;;;7.50;1.55;;;11.90;99.90;;;;;;5156438;27;20118;-73
2023/09/04 00:49:14;;;;;;;8.02;1.50;;;11.80;99.90;;;;;;5153354;27;20457;-73
2023/09/04 00:51:40;;;;;;;7.00;1.55;;;11.90;99.90;;;;;;5155027;27;20066;-73
2023/09/04 00:54:08;;;;;;;6.45;1.50;;;11.90;99.90;;;;;;5154767;27;20047;-73
2023/09/04 00:56:34;;;;;;;8.38;1.40;;;11.90;99.90;;;;;;5155934;27;20392;-73
2023/09/04 00:59:00;;;;;;;4.45;1.08;;;11.90;99.90;;;;;;5155962;27;20042;-73
2023/09/04 01:01:26;;;;;;;4.07;1.30;;;11.90;99.90;;;;;;5155222;27;20041;-73
2023/09/04 01:03:52;;;;;;;14.27;1.98;;;11.80;99.90;;;;;;5155943;27;20098;-74
2023/09/04 01:06:17;;;;;;;21.00;2.10;;;11.80;99.90;;;;;;5155391;27;20461;-73
2023/09/04 01:08:43;;;;;;;36.05;3.50;;;11.80;99.90;;;;;;5155333;27;20125;-73
2023/09/04 01:11:39;;;;;;;23.02;2.42;;;11.70;99.90;;;;;;5141886;27;20487;-74
2023/09/04 01:14:12;;;;;;;23.35;2.38;;;11.80;99.90;;;;;;5155638;27;20081;-74
2023/09/04 01:16:39;;;;;;;19.48;2.60;;;11.70;99.90;;;;;;5155612;27;20062;-73
2023/09/04 01:19:06;;;;;;;12.35;2.15;;;11.80;99.90;;;;;;5136072;27;20053;-73
2023/09/04 01:21:39;;;;;;;10.10;2.05;;;11.80;99.90;;;;;;5137318;27;20079;-73
2023/09/04 01:24:08;;;;;;;12.80;2.60;;;11.80;99.90;;;;;;5124119;27;20042;-73
2023/09/04 01:26:45;;;;;;;26.23;2.60;;;11.80;99.90;;;;;;5155206;27;20414;-73
2023/09/04 01:29:35;;;;;;;18.77;2.83;;;11.80;99.90;;;;;;5155006;27;20121;-74
2023/09/04 01:32:10;;;;;;;22.23;2.88;;;11.80;99.90;;;;;;5155234;27;20049;-74
2023/09/04 01:34:48;;;;;;;9.73;2.28;;;11.70;99.90;;;;;;5155541;27;20057;-73
2023/09/04 01:37:14;;;;;;;3.42;2.05;;;11.70;99.90;;;;;;5150448;27;20114;-74
2023/09/04 01:39:40;;;;;;;3.00;2.00;;;11.60;99.90;;;;;;5142979;27;20047;-73
2023/09/04 01:42:06;;;;;;;2.58;2.00;;;11.60;99.90;;;;;;5155332;27;20115;-74
2023/09/04 01:44:33;;;;;;;2.40;1.90;;;11.60;99.90;;;;;;5152239;27;20117;-74
2023/09/04 01:46:59;;;;;;;3.83;1.90;;;11.60;99.90;;;;;;5155454;27;20099;-74
2023/09/04 01:49:25;;;;;;;3.95;2.50;;;11.70;99.90;;;;;;5154661;27;20495;-75
2023/09/04 01:51:52;;;;;;;2.95;2.10;;;11.70;99.90;;;;;;5155821;27;20090;-74
2023/09/04 01:54:18;;;;;;;2.90;2.20;;;11.70;99.90;;;;;;5149115;27;20489;-74
2023/09/04 01:56:43;;;;;;;3.28;2.00;;;11.80;99.90;;;;;;5149983;27;20039;-74
2023/09/04 01:59:09;;;;;;;3.00;2.17;;;11.90;99.90;;;;;;5155062;27;20049;-74
2023/09/04 02:01:35;;;;;;;2.72;1.80;;;11.90;99.90;;;;;;5154418;27;20118;-74
2023/09/04 02:04:01;;;;;;;2.35;1.60;;;11.90;99.90;;;;;;5154814;27;20038;-74
2023/09/04 02:06:28;;;;;;;3.35;1.65;;;11.90;99.90;;;;;;5154486;27;20525;-73
2023/09/04 02:08:54;;;;;;;3.28;1.58;;;11.90;99.90;;;;;;5154577;27;20042;-74
2023/09/04 02:11:19;;;;;;;2.90;1.90;;;11.80;99.90;;;;;;5136509;27;20050;-74
2023/09/04 02:13:45;;;;;;;3.35;1.60;;;11.80;99.90;;;;;;5154634;27;20043;-74
2023/09/04 02:16:12;;;;;;;3.70;1.70;;;11.70;99.90;;;;;;5154796;27;20118;-73
2023/09/04 02:18:38;;;;;;;6.10;1.85;;;11.60;99.90;;;;;;5154642;27;20537;-74
2023/09/04 02:21:05;;;;;;;5.13;1.40;;;11.60;99.90;;;;;;5154302;27;20046;-74
2023/09/04 02:23:31;;;;;;;2.88;1.30;;;11.60;99.90;;;;;;5154370;27;20045;-73
2023/09/04 02:25:56;;;;;;;4.20;1.50;;;11.50;99.90;;;;;;5154013;27;20045;-73
2023/09/04 02:28:22;;;;;;;4.57;1.80;;;11.50;99.90;;;;;;5136207;27;20035;-73
2023/09/04 02:30:48;;;;;;;13.10;1.80;;;11.40;99.90;;;;;;5154594;27;20121;-73
2023/09/04 02:33:13;;;;;;;3.97;1.30;;;11.40;99.90;;;;;;5155008;27;20055;-73
2023/09/04 02:35:39;;;;;;;2.15;1.33;;;11.40;99.90;;;;;;5154531;27;20042;-73
2023/09/04 02:38:05;;;;;;;7.50;1.58;;;11.50;99.90;;;;;;5148058;27;20051;-74
2023/09/04 02:40:30;;;;;;;15.30;2.63;;;11.50;99.90;;;;;;5153821;27;20042;-73
2023/09/04 02:42:56;;;;;;;2.65;1.90;;;11.50;99.90;;;;;;5148857;27;20039;-73
2023/09/04 02:45:22;;;;;;;3.83;2.00;;;11.50;99.90;;;;;;5151334;27;20091;-74
2023/09/04 02:47:48;;;;;;;2.83;1.98;;;11.50;99.90;;;;;;5154261;27;20039;-73
2023/09/04 02:50:14;;;;;;;2.08;1.50;;;11.50;99.90;;;;;;5135598;27;20126;-74
2023/09/04 02:52:39;;;;;;;2.55;1.75;;;11.40;99.90;;;;;;5154488;27;20415;-73
2023/09/04 02:55:06;;;;;;;3.85;1.98;;;11.40;99.90;;;;;;5153628;27;20049;-73
2023/09/04 02:57:32;;;;;;;3.10;1.90;;;11.40;99.90;;;;;;5136261;27;20098;-74
2023/09/04 03:00:05;;;;;;;5.07;2.65;;;11.30;99.90;;;;;;5153823;27;20050;-74
2023/09/04 03:02:34;;;;;;;2.53;2.00;;;11.30;99.90;;;;;;5154415;27;20499;-74
2023/09/04 03:05:00;;;;;;;2.88;2.00;;;11.10;99.90;;;;;;5153648;27;20042;-74
2023/09/04 03:07:27;;;;;;;3.75;1.88;;;11.10;99.90;;;;;;5125912;27;20364;-74
2023/09/04 03:09:59;;;;;;;2.60;1.50;;;11.10;99.90;;;;;;5148725;27;20046;-74
2023/09/04 03:12:31;;;;;;;4.45;1.75;;;11.00;99.90;;;;;;5152330;27;20135;-74
2023/09/04 03:14:58;;;;;;;14.73;2.10;;;11.00;99.90;;;;;;5139524;27;20054;-75
2023/09/04 03:17:24;;;;;;;9.82;2.20;;;10.90;99.90;;;;;;5139545;27;20074;-75
2023/09/04 03:19:52;;;;;;;8.32;1.90;;;10.90;99.90;;;;;;5145982;27;20042;-74
2023/09/04 03:22:17;;;;;;;3.35;1.70;;;10.90;99.90;;;;;;5153301;27;20112;-74
2023/09/04 03:24:43;;;;;;;2.00;1.45;;;10.80;99.90;;;;;;5149202;27;20134;-74
2023/09/04 03:27:09;;;;;;;2.30;1.70;;;10.90;99.90;;;;;;5157890;27;20095;-74
2023/09/04 03:29:35;;;;;;;2.75;1.20;;;10.90;99.90;;;;;;5158103;27;20114;-74
2023/09/04 03:32:00;;;;;;;2.78;1.60;;;10.90;99.90;;;;;;5149624;27;20391;-74
2023/09/04 03:34:27;;;;;;;3.47;1.42;;;10.80;99.90;;;;;;5143053;27;20045;-74
2023/09/04 03:36:53;;;;;;;39.10;3.30;;;10.80;99.90;;;;;;5125573;27;20043;-74
2023/09/04 03:39:19;;;;;;;8.27;1.27;;;10.70;99.90;;;;;;5145723;27;20049;-73
2023/09/04 03:41:44;;;;;;;2.22;0.80;;;10.60;99.90;;;;;;5154612;27;20047;-74
2023/09/04 03:44:10;;;;;;;60.22;5.30;;;10.50;99.90;;;;;;5133532;27;20087;-74
2023/09/04 03:46:36;;;;;;;2.40;1.60;;;10.50;99.90;;;;;;5157509;27;20122;-73
2023/09/04 03:49:02;;;;;;;2.15;1.70;;;10.50;99.90;;;;;;5138793;27;20043;-74
2023/09/04 03:51:27;;;;;;;1.92;1.33;;;10.50;99.90;;;;;;5156872;27;20058;-74
2023/09/04 03:53:53;;;;;;;1.40;0.90;;;10.50;99.90;;;;;;5156272;27;20034;-74
2023/09/04 03:56:19;;;;;;;2.60;1.23;;;10.60;99.90;;;;;;5131909;27;20070;-74
2023/09/04 03:58:44;;;;;;;1.92;1.42;;;10.60;99.90;;;;;;5157026;27;20046;-74
2023/09/04 04:01:10;;;;;;;8.13;1.83;;;10.60;99.90;;;;;;5156692;27;20487;-74
2023/09/04 04:03:36;;;;;;;3.28;1.60;;;10.70;99.90;;;;;;5156788;27;20100;-74
2023/09/04 04:06:12;;;;;;;2.15;1.30;;;10.70;99.90;;;;;;5152746;27;20039;-74
2023/09/04 04:08:38;;;;;;;1.75;1.20;;;10.70;99.90;;;;;;5124832;27;20046;-74
2023/09/04 04:11:04;;;;;;;2.08;1.27;;;10.70;99.90;;;;;;5138329;27;20043;-74
2023/09/04 04:13:30;;;;;;;2.20;1.17;;;10.70;99.90;;;;;;5156846;27;20122;-74
2023/09/04 04:15:59;;;;;;;2.47;1.30;;;10.80;99.90;;;;;;5138001;27;20175;-74
2023/09/04 04:18:26;;;;;;;3.30;1.60;;;10.80;99.90;;;;;;5155975;27;20085;-74
2023/09/04 04:20:55;;;;;;;2.60;1.73;;;10.80;99.90;;;;;;5135154;27;20140;-74
2023/09/04 04:23:21;;;;;;;2.25;1.42;;;10.90;99.90;;;;;;5140999;27;20039;-74
2023/09/04 04:25:50;;;;;;;4.13;1.70;;;10.90;99.90;;;;;;5138306;27;20069;-74
2023/09/04 04:28:20;;;;;;;2.05;1.42;;;10.90;99.90;;;;;;5157575;27;20053;-74
2023/09/04 04:30:46;;;;;;;3.17;1.58;;;10.90;99.90;;;;;;5157612;27;20077;-73
2023/09/04 04:33:12;;;;;;;2.20;1.35;;;10.90;99.90;;;;;;5156365;27;20074;-74
2023/09/04 04:35:41;;;;;;;2.00;1.35;;;10.90;99.90;;;;;;5156133;27;20041;-74
2023/09/04 04:38:08;;;;;;;1.63;1.05;;;10.90;99.90;;;;;;5155378;27;20056;-74
2023/09/04 04:40:37;;;;;;;1.38;0.90;;;10.90;99.90;;;;;;5155490;27;20090;-74
2023/09/04 04:43:03;;;;;;;1.60;0.93;;;10.80;99.90;;;;;;5156128;27;20038;-75
2023/09/04 04:45:29;;;;;;;1.92;1.33;;;10.80;99.90;;;;;;5155913;27;20079;-74
2023/09/04 04:47:55;;;;;;;1.30;0.98;;;10.80;99.90;;;;;;5155835;27;20070;-74
2023/09/04 04:50:21;;;;;;;1.77;1.10;;;10.80;99.90;;;;;;5156071;27;20086;-74
2023/09/04 04:52:47;;;;;;;2.10;1.40;;;10.80;99.90;;;;;;5156162;27;20051;-74
2023/09/04 04:55:12;;;;;;;1.95;1.30;;;10.80;99.90;;;;;;5155055;27;20039;-74
2023/09/04 04:57:39;;;;;;;1.50;1.02;;;10.70;99.90;;;;;;5156308;27;20046;-74
2023/09/04 05:00:06;;;;;;;1.50;1.05;;;10.70;99.90;;;;;;5155961;27;20054;-74
2023/09/04 05:02:33;;;;;;;1.80;1.20;;;10.70;99.90;;;;;;5137695;27;20046;-74
2023/09/04 05:04:59;;;;;;;1.90;1.25;;;10.70;99.90;;;;;;5155748;27;20368;-74
2023/09/04 05:07:24;;;;;;;2.53;1.48;;;10.70;99.90;;;;;;5137431;27;20071;-74
2023/09/04 05:09:53;;;;;;;2.38;1.23;;;10.70;99.90;;;;;;5155334;27;20394;-74
2023/09/04 05:12:19;;;;;;;1.70;1.13;;;10.70;99.90;;;;;;5155557;27;20038;-74
2023/09/04 05:14:45;;;;;;;2.92;1.40;;;10.70;99.90;;;;;;5136566;27;20042;-76
2023/09/04 05:17:10;;;;;;;6.30;1.40;;;10.70;99.90;;;;;;5155344;27;20042;-74
2023/09/04 05:19:36;;;;;;;1.90;1.30;;;10.70;99.90;;;;;;5137161;27;20478;-74
2023/09/04 05:22:02;;;;;;;2.00;1.20;;;10.70;99.90;;;;;;5155948;27;20061;-74
2023/09/04 05:24:28;;;;;;;2.80;1.15;;;10.70;99.90;;;;;;5154514;27;20051;-74
2023/09/04 05:26:54;;;;;;;4.60;1.45;;;10.60;99.90;;;;;;5155461;27;20493;-74
2023/09/04 05:29:20;;;;;;;3.35;1.20;;;10.60;99.90;;;;;;5155308;27;20046;-74
2023/09/04 05:31:48;;;;;;;3.03;1.35;;;10.60;99.90;;;;;;5155129;27;20133;-74
2023/09/04 05:34:14;;;;;;;2.03;1.40;;;10.70;99.90;;;;;;5155279;27;20364;-74
2023/09/04 05:36:40;;;;;;;1.90;1.40;;;10.70;99.90;;;;;;5154761;27;20103;-74
2023/09/04 05:39:05;;;;;;;2.90;1.65;;;10.80;99.90;;;;;;5144836;27;20122;-74
2023/09/04 05:41:31;;;;;;;2.63;1.75;;;10.90;99.90;;;;;;5155510;27;20046;-75
2023/09/04 05:43:57;;;;;;;3.10;2.53;;;10.90;99.90;;;;;;5149086;27;20070;-74
2023/09/04 05:46:22;;;;;;;5.90;2.08;;;11.00;99.90;;;;;;5140321;27;20087;-75
2023/09/04 05:48:48;;;;;;;2.40;1.70;;;11.10;99.90;;;;;;5155285;27;20066;-74
2023/09/04 05:51:14;;;;;;;2.97;1.63;;;11.10;99.90;;;;;;5154920;27;20058;-74
2023/09/04 05:53:39;;;;;;;6.72;1.75;;;11.20;99.90;;;;;;5135747;27;20038;-74
2023/09/04 05:56:11;;;;;;;2.60;1.83;;;11.30;99.90;;;;;;5136123;27;20078;-75
2023/09/04 05:58:43;;;;;;;2.17;1.50;;;11.30;99.90;;;;;;5155040;27;20047;-73
2023/09/04 06:01:09;;;;;;;2.63;1.80;;;11.40;99.90;;;;;;5154695;27;20051;-74
2023/09/04 06:03:34;;;;;;;1.90;1.30;;;11.50;99.90;;;;;;5154926;27;20187;-74
2023/09/04 06:06:00;;;;;;;1.92;1.50;;;11.50;99.90;;;;;;5154738;27;20050;-74
2023/09/04 06:08:26;;;;;;;2.00;1.60;;;11.60;99.90;;;;;;5155017;27;20039;-74
2023/09/04 06:10:51;;;;;;;2.22;1.58;;;11.70;99.90;;;;;;5154511;27;20043;-74
2023/09/04 06:13:17;;;;;;;2.42;1.65;;;11.80;99.90;;;;;;5154642;27;20050;-74
2023/09/04 06:15:43;;;;;;;2.97;1.70;;;11.90;99.90;;;;;;5154765;27;20038;-74
2023/09/04 06:18:09;;;;;;;3.58;2.58;;;12.10;99.90;;;;;;5153643;27;20041;-68
2023/09/04 06:20:34;;;;;;;3.50;2.38;;;12.20;99.90;;;;;;5143312;27;20043;-67
2023/09/04 06:23:01;;;;;;;3.55;2.63;;;12.40;99.90;;;;;;5146025;27;20050;-67
2023/09/04 06:25:27;;;;;;;5.22;3.45;;;12.50;99.90;;;;;;5154545;27;20045;-67
2023/09/04 06:27:52;;;;;;;4.13;3.28;;;12.70;99.90;;;;;;5155002;27;20134;-67
2023/09/04 06:30:18;;;;;;;5.60;3.65;;;12.80;99.90;;;;;;5154634;27;20046;-67
2023/09/04 06:32:44;;;;;;;5.65;3.50;;;13.00;99.90;;;;;;5136162;27;20047;-67
2023/09/04 06:35:10;;;;;;;4.65;3.55;;;13.10;99.90;;;;;;5154693;27;20046;-67
2023/09/04 06:37:35;;;;;;;5.85;3.22;;;13.20;99.90;;;;;;5151246;27;20043;-67
2023/09/04 06:40:02;;;;;;;4.38;3.33;;;13.30;99.90;;;;;;5139674;27;20489;-67
2023/09/04 06:42:27;;;;;;;4.88;2.90;;;13.40;99.90;;;;;;5157554;27;20130;-67
2023/09/04 06:44:53;;;;;;;4.20;2.90;;;13.50;99.90;;;;;;5144775;27;20078;-67
2023/09/04 06:47:19;;;;;;;5.78;3.20;;;13.60;99.90;;;;;;5137987;27;20057;-68
2023/09/04 06:49:44;;;;;;;4.10;2.90;;;13.70;99.90;;;;;;5137868;27;20043;-68
2023/09/04 06:52:10;;;;;;;4.28;3.08;;;13.80;99.90;;;;;;5137894;27;20043;-67
2023/09/04 06:54:36;;;;;;;6.63;3.95;;;13.90;99.90;;;;;;5119336;27;20074;-67
2023/09/04 06:57:02;;;;;;;5.15;3.67;;;14.00;99.90;;;;;;5137749;27;20043;-67
2023/09/04 06:59:27;;;;;;;4.82;3.78;;;14.00;99.90;;;;;;5119489;27;20039;-67
2023/09/04 07:01:53;;;;;;;5.78;4.15;;;14.20;99.90;;;;;;5137695;27;20051;-67
2023/09/04 07:04:19;;;;;;;5.75;4.05;;;14.30;99.90;;;;;;5137835;27;20131;-67
2023/09/04 07:06:44;;;;;;;5.97;4.78;;;14.40;99.90;;;;;;5137323;27;20047;-67
2023/09/04 07:09:10;;;;;;;5.45;4.32;;;14.40;99.90;;;;;;5137106;27;20486;-67
2023/09/04 07:11:36;;;;;;;5.30;4.65;;;14.60;99.90;;;;;;5151950;27;20089;-67
2023/09/04 07:14:02;;;;;;;6.03;4.38;;;14.60;99.90;;;;;;5158207;27;20162;-67
2023/09/04 07:16:28;;;;;;;6.63;5.00;;;14.80;99.90;;;;;;5158342;27;20051;-67
2023/09/04 07:18:54;;;;;;;6.28;4.97;;;14.80;99.90;;;;;;5158143;27;20690;-67
2023/09/04 07:21:20;;;;;;;6.65;4.80;;;14.90;99.90;;;;;;5158480;27;20078;-67
2023/09/04 07:23:46;;;;;;;5.72;4.80;;;15.10;99.90;;;;;;5154603;27;20111;-68
2023/09/04 07:26:12;;;;;;;6.80;5.45;;;15.20;99.90;;;;;;5137322;27;20050;-68
2023/09/04 07:28:37;;;;;;;7.13;5.78;;;15.20;99.90;;;;;;5147689;27;20066;-67
2023/09/04 07:31:19;;;;;;;7.10;5.63;;;15.40;99.90;;;;;;5141225;27;20408;-67
2023/09/04 07:33:48;;;;;;;6.80;5.50;;;15.50;99.90;;;;;;5153850;27;20256;-67
2023/09/04 07:36:15;;;;;;;7.38;5.75;;;15.60;99.90;;;;;;5141030;27;20054;-67
2023/09/04 07:38:41;;;;;;;7.53;5.90;;;15.70;99.90;;;;;;5156903;27;20072;-67
2023/09/04 07:41:07;;;;;;;7.80;6.32;;;15.90;99.90;;;;;;5156893;27;20043;-66
2023/09/04 07:43:33;;;;;;;6.78;6.00;;;16.00;99.90;;;;;;5154609;27;20368;-67
2023/09/04 07:46:00;;;;;;;7.82;5.95;;;16.10;99.90;;;;;;5142053;27;20050;-68
2023/09/04 07:48:26;;;;;;;6.90;6.05;;;16.20;99.90;;;;;;5137638;27;20054;-67
2023/09/04 07:50:52;;;;;;;8.13;6.63;;;16.40;99.90;;;;;;5156409;27;20050;-67
2023/09/04 07:53:19;;;;;;;9.23;6.70;;;16.50;99.90;;;;;;5155412;27;20058;-68
2023/09/04 07:55:48;;;;;;;9.50;6.53;;;16.60;99.90;;;;;;5155885;27;20038;-67
2023/09/04 07:58:13;;;;;;;9.88;6.70;;;16.80;99.90;;;;;;5156295;27;20051;-67
2023/09/04 08:00:48;;;;;;;8.70;6.40;;;17.00;99.90;;;;;;5138074;27;20125;-67
2023/09/04 08:03:14;;;;;;;8.00;7.03;;;17.10;99.90;;;;;;5156040;27;20046;-67
2023/09/04 08:05:40;;;;;;;7.05;6.20;;;17.30;99.90;;;;;;5156233;27;20034;-67
2023/09/04 08:08:10;;;;;;;7.80;5.95;;;17.30;99.90;;;;;;5137555;27;20057;-67
2023/09/04 08:10:40;;;;;;;7.78;5.97;;;17.50;99.90;;;;;;5156177;27;20043;-68
2023/09/04 08:13:11;;;;;;;7.82;6.30;;;17.60;99.90;;;;;;5156283;27;20047;-66
2023/09/04 08:15:37;;;;;;;7.18;5.95;;;17.80;99.90;;;;;;5147742;27;20052;-67
2023/09/04 08:18:03;;;;;;;8.05;5.82;;;17.90;99.90;;;;;;5148914;27;20548;-67
2023/09/04 08:20:29;;;;;;;6.20;5.40;;;18.00;99.90;;;;;;5113829;27;20070;-67
2023/09/04 08:22:55;;;;;;;7.30;5.97;;;18.20;99.90;;;;;;5151013;27;20099;-67
2023/09/04 08:25:20;;;;;;;7.22;5.20;;;18.30;99.90;;;;;;5150606;27;20047;-67
2023/09/04 08:27:46;;;;;;;5.60;4.90;;;18.40;99.90;;;;;;5154656;27;20034;-68
2023/09/04 08:30:12;;;;;;;7.28;5.45;;;18.50;99.90;;;;;;5155628;27;20365;-67
2023/09/04 08:32:38;;;;;;;7.00;5.32;;;18.70;99.90;;;;;;5134718;27;20481;-68
2023/09/04 08:35:06;;;;;;;7.15;4.95;;;18.80;99.90;;;;;;5151484;27;20166;-67
2023/09/04 08:37:31;;;;;;;6.28;5.65;;;18.90;99.90;;;;;;5144427;27;20054;-67
2023/09/04 08:39:57;;;;;;;5.88;4.65;;;19.00;99.90;;;;;;5135048;27;20392;-67
2023/09/04 08:42:23;;;;;;;5.93;4.72;;;19.10;99.90;;;;;;5135880;27;20066;-67
2023/09/04 08:44:54;;;;;;;5.82;4.63;;;19.20;99.90;;;;;;5134700;27;20487;-67
2023/09/04 08:47:21;;;;;;;6.20;4.50;;;19.30;99.90;;;;;;5139052;27;20372;-67
2023/09/04 08:49:47;;;;;;;5.68;4.75;;;19.50;99.90;;;;;;5125612;27;20391;-66
2023/09/04 08:52:13;;;;;;;7.15;4.10;;;19.60;99.90;;;;;;5152759;27;20411;-67
2023/09/04 08:54:40;;;;;;;4.38;3.80;;;19.70;99.90;;;;;;5144178;27;20043;-67
2023/09/04 08:57:07;;;;;;;4.82;3.75;;;19.80;99.90;;;;;;5149367;27;20047;-68
2023/09/04 08:59:33;;;;;;;3.67;3.00;;;19.90;99.90;;;;;;5151702;27;20047;-66
2023/09/04 09:02:03;;;;;;;3.97;3.10;;;20.00;99.90;;;;;;5153582;27;20046;-67
2023/09/04 09:04:31;;;;;;;3.33;2.58;;;20.10;99.90;;;;;;5152202;27;20598;-67
2023/09/04 09:06:57;;;;;;;4.00;2.95;;;20.20;99.90;;;;;;5154672;27;20050;-68
2023/09/04 09:09:24;;;;;;;4.05;3.00;;;20.30;99.90;;;;;;5125055;27;20043;-68
2023/09/04 09:11:53;;;;;;;4.85;3.00;;;20.30;99.90;;;;;;5128896;27;20402;-68
2023/09/04 09:14:26;;;;;;;3.85;2.92;;;20.30;99.90;;;;;;5154904;27;20074;-68
2023/09/04 09:17:03;;;;;;;4.03;2.80;;;20.30;99.90;;;;;;5154860;27;20039;-68
2023/09/04 09:19:32;;;;;;;3.95;2.85;;;20.50;99.90;;;;;;5154664;27;20043;-67
2023/09/04 09:22:11;;;;;;;4.72;3.08;;;20.60;99.90;;;;;;5154934;27;20090;-67
2023/09/04 09:24:59;;;;;;;3.95;3.28;;;20.80;99.90;;;;;;5152078;27;20058;-67
2023/09/04 09:27:31;;;;;;;3.28;2.70;;;20.90;99.90;;;;;;5124280;27;20066;-66
2023/09/04 09:29:58;;;;;;;3.40;2.72;;;21.00;99.90;;;;;;5154451;27;20057;-66
2023/09/04 09:32:28;;;;;;;3.40;2.45;;;21.10;99.90;;;;;;5136145;27;20512;-67
2023/09/04 09:34:56;;;;;;;3.85;2.70;;;21.20;99.90;;;;;;5151181;27;20092;-66
2023/09/04 09:37:25;;;;;;;3.00;2.40;;;21.30;99.90;;;;;;5140440;27;20042;-67
2023/09/04 09:39:51;;;;;;;4.03;2.28;;;21.40;99.90;;;;;;5154544;27;20106;-66
2023/09/04 09:42:17;;;;;;;2.90;2.33;;;21.40;99.90;;;;;;5154004;27;20514;-68
2023/09/04 09:44:43;;;;;;;4.30;2.58;;;21.60;99.90;;;;;;5151624;27;20486;-66
2023/09/04 09:47:13;;;;;;;3.95;2.30;;;21.70;99.90;;;;;;5136149;27;20042;-66
2023/09/04 09:49:43;;;;;;;4.53;2.20;;;21.80;99.90;;;;;;5136073;27;20043;-66
2023/09/04 09:52:10;;;;;;;3.13;2.00;;;21.90;99.90;;;;;;5128247;27;20096;-66
2023/09/04 09:54:46;;;;;;;2.72;2.05;;;22.00;99.90;;;;;;5133298;27;20042;-66
2023/09/04 09:57:14;;;;;;;2.60;2.20;;;22.10;99.90;;;;;;5117935;27;20556;-66
2023/09/04 09:59:45;;;;;;;3.78;2.40;;;22.20;99.90;;;;;;5132254;27;20450;-66
2023/09/04 10:02:26;;;;;;;3.72;2.00;;;22.30;99.90;;;;;;5128102;27;20047;-67
2023/09/04 10:04:53;;;;;;;3.25;2.40;;;22.30;99.90;;;;;;5131778;27;20046;-66
2023/09/04 10:07:28;;;;;;;3.42;2.10;;;22.40;99.90;;;;;;5132872;27;20050;-68
2023/09/04 10:10:03;;;;;;;3.80;2.08;;;22.50;99.90;;;;;;5115999;28;20040;-70
2023/09/04 10:12:43;;;;;;;3.97;2.22;;;22.50;99.90;;;;;;5128321;28;20506;-72
2023/09/04 10:15:12;;;;;;;3.30;1.85;;;22.60;99.90;;;;;;5133294;27;20032;-68
2023/09/04 10:17:58;;;;;;;2.42;1.90;;;22.70;99.90;;;;;;5136325;27;20097;-68
2023/09/04 10:20:25;;;;;;;2.63;1.90;;;22.90;99.90;;;;;;5137512;27;20047;-68
2023/09/04 10:23:02;;;;;;;2.78;1.73;;;22.90;99.90;;;;;;5135778;27;20058;-68
2023/09/04 10:25:47;;;;;;;2.70;1.92;;;23.10;99.90;;;;;;5136407;27;20395;-67
2023/09/04 10:28:23;;;;;;;2.28;1.65;;;23.20;99.90;;;;;;5137550;27;20047;-68
2023/09/04 10:30:52;;;;;;;2.60;1.77;;;23.40;99.90;;;;;;5126287;27;20120;-67
2023/09/04 10:33:20;;;;;;;3.40;1.90;;;23.50;99.90;;;;;;5120912;27;20040;-66
2023/09/04 10:35:46;;;;;;;3.08;1.90;;;23.70;99.90;;;;;;5137435;27;20035;-67
2023/09/04 10:38:12;;;;;;;3.85;1.75;;;23.80;99.90;;;;;;5133334;27;20487;-67
2023/09/04 10:40:39;;;;;;;2.75;1.73;;;23.80;99.90;;;;;;5136587;27;20047;-67
2023/09/04 10:43:05;;;;;;;2.80;1.65;;;23.90;99.90;;;;;;5123204;27;20054;-66
2023/09/04 10:45:32;;;;;;;3.22;1.80;;;24.00;99.90;;;;;;5136801;27;20035;-69
2023/09/04 10:48:00;;;;;;;2.22;1.52;;;24.30;99.90;;;;;;5127274;27;20038;-68
2023/09/04 10:50:37;;;;;;;2.00;1.45;;;24.20;99.90;;;;;;5139970;27;20058;-68
2023/09/04 10:53:08;;;;;;;2.85;1.60;;;24.30;99.90;;;;;;5150010;27;20113;-69
2023/09/04 10:55:37;;;;;;;3.58;1.75;;;24.30;99.90;;;;;;5156949;27;20039;-68
2023/09/04 10:58:07;;;;;;;2.65;1.67;;;24.50;99.90;;;;;;5157733;27;20091;-68
2023/09/04 11:00:40;;;;;;;2.78;1.67;;;24.50;99.90;;;;;;5156883;27;20053;-69
2023/09/04 11:03:19;;;;;;;2.55;1.60;;;24.50;99.90;;;;;;5158185;27;20038;-68
2023/09/04 11:06:03;;;;;;;3.35;1.90;;;24.60;99.90;;;;;;5157672;27;20061;-69
2023/09/04 11:08:29;;;;;;;3.05;1.70;;;24.60;99.90;;;;;;5145313;27;20049;-70
2023/09/04 11:11:04;;;;;;;2.40;1.60;;;24.50;99.90;;;;;;5136524;27;20092;-68
2023/09/04 11:13:33;;;;;;;2.72;1.60;;;24.50;99.90;;;;;;5135694;27;20036;-68
2023/09/04 11:16:03;;;;;;;2.35;1.58;;;24.40;99.90;;;;;;5136763;27;20182;-67
2023/09/04 11:18:30;;;;;;;2.97;1.50;;;24.30;99.90;;;;;;5137001;27;20051;-66
2023/09/04 11:20:56;;;;;;;2.30;1.45;;;24.20;99.90;;;;;;5120255;27;20055;-66
2023/09/04 11:23:26;;;;;;;3.05;1.73;;;24.10;99.90;;;;;;5139877;27;20104;-66
2023/09/04 11:25:54;;;;;;;2.88;1.48;;;24.10;99.90;;;;;;5136464;27;20043;-67
2023/09/04 11:28:23;;;;;;;2.30;1.35;;;24.00;99.90;;;;;;5135791;27;20395;-67
2023/09/04 11:30:57;;;;;;;2.90;1.50;;;23.90;99.90;;;;;;5136341;27;20122;-67
2023/09/04 11:33:31;;;;;;;3.40;1.60;;;23.90;99.90;;;;;;5135050;27;20487;-68
2023/09/04 11:36:06;;;;;;;2.20;1.50;;;23.80;99.90;;;;;;5135454;27;20043;-67
2023/09/04 11:38:38;;;;;;;2.38;1.40;;;23.80;99.90;;;;;;5146648;27;20099;-67
2023/09/04 11:41:19;;;;;;;2.95;1.60;;;23.80;99.90;;;;;;5146162;27;20035;-66
2023/09/04 11:43:45;;;;;;;2.90;1.50;;;23.80;99.90;;;;;;5121007;27;20148;-67
2023/09/04 11:46:11;;;;;;;3.08;1.58;;;23.80;99.90;;;;;;5137195;27;20479;-67
2023/09/04 11:48:37;;;;;;;2.95;1.45;;;23.70;99.90;;;;;;5155585;27;20550;-68
2023/09/04 11:51:09;;;;;;;2.63;1.58;;;23.80;99.90;;;;;;5136680;27;20385;-68
2023/09/04 11:53:35;;;;;;;2.20;1.60;;;23.80;99.90;;;;;;5142889;27;20051;-68
2023/09/04 11:56:02;;;;;;;2.17;1.30;;;23.90;99.90;;;;;;5156383;27;20047;-67
2023/09/04 11:58:28;;;;;;;2.85;1.25;;;23.90;99.90;;;;;;5156340;27;20046;-68
2023/09/04 12:00:53;;;;;;;2.45;1.42;;;23.90;99.90;;;;;;5155609;27;20050;-69
2023/09/04 12:03:19;;;;;;;2.33;1.70;;;24.00;99.90;;;;;;5156727;27;20468;-67
2023/09/04 12:05:47;;;;;;;2.00;1.25;;;24.00;99.90;;;;;;5156360;27;20475;-68
2023/09/04 12:08:13;;;;;;;2.17;1.38;;;24.00;99.90;;;;;;5156355;27;20585;-67
2023/09/04 12:10:38;;;;;;;2.78;1.60;;;24.00;99.90;;;;;;5156417;27;20125;-69
2023/09/04 12:13:04;;;;;;;2.75;1.60;;;24.00;99.90;;;;;;5148240;27;20039;-68
2023/09/04 12:15:33;;;;;;;2.20;1.40;;;24.00;99.90;;;;;;5135786;27;20039;-67
2023/09/04 12:18:01;;;;;;;2.28;1.38;;;24.00;99.90;;;;;;5138195;27;20049;-66
2023/09/04 12:20:41;;;;;;;2.53;1.50;;;24.00;99.90;;;;;;5138960;27;20039;-68
2023/09/04 12:23:07;;;;;;;2.97;1.40;;;23.90;99.90;;;;;;5135268;27;20510;-67
2023/09/04 12:25:38;;;;;;;2.13;1.40;;;23.90;99.90;;;;;;5135476;27;20083;-67
2023/09/04 12:28:17;;;;;;;2.47;1.50;;;23.80;99.90;;;;;;5135598;27;20080;-68
2023/09/04 12:30:47;;;;;;;2.72;1.50;;;23.80;99.90;;;;;;5138920;27;20053;-67
2023/09/04 12:33:16;;;;;;;2.17;1.38;;;23.80;99.90;;;;;;5155337;27;20050;-68
2023/09/04 12:35:43;;;;;;;2.33;1.50;;;23.90;99.90;;;;;;5137460;27;20043;-67
2023/09/04 12:38:10;;;;;;;2.33;1.40;;;23.90;99.90;;;;;;5155744;27;20047;-67
2023/09/04 12:40:36;;;;;;;2.03;1.33;;;24.00;99.90;;;;;;5136788;27;20053;-69
2023/09/04 12:43:03;;;;;;;3.05;1.40;;;24.30;99.90;;;;;;5151458;27;20058;-67
2023/09/04 12:45:29;;;;;;;2.78;1.40;;;24.90;99.90;;;;;;5153342;27;20043;-68
2023/09/04 12:47:59;;;;;;;2.97;1.50;;;25.60;99.90;;;;;;5140476;27;20636;-67